Euclides da Cunha, Brazil
Current Conditions -  °F | °C
As of 12:00 PM on Friday 24 Oct 2014 (Local Time) from SBPL Reporting Station
Broken Clouds Broken Clouds  
Wind Chill: 90°   Ceiling: 3300
Heat Index: 91°   Visibility: 6mi
Dew Point: 64°   Wind: 12mph
Humidity: 43%   Direction: 170°S
Pressure: 29.97"   Gusts: NA
Location:  10.51°S, 39.02°W
Report Text: SBPL 241500Z 17010KT 9999 BKN033 32/18 Q1015
Loading
Personal Weather Stations






























Interactive Weather Map
Tropical Storm Tracking
New forecast layout! Learn more

10-Day Weather Forecast

Advertisements
Track Severe Weather on mobile